You are listening to:
KJFK D-ATIS - New York, New York, United States

KJFK 241751Z 36010KT 10SM SCT060 SCT100 24/12 A3017 RMK AO2 SLP216 T02390117 10250 20189 55002

If stream does not start automatically press the play button